Time;durP1;ratioP1;P1;durP2;ratioP2;P2;SDS_P1;SDS_P2;PMS_P1;PMS_P2;Temp;Humidity;BMP_temperature;BMP_pressure;BME280_temperature;BME280_humidity;BME280_pressure;Samples;Min_cycle;Max_cycle;Signal;HPM_P1;HPM_P2
2022/01/20 00:03:31;;;;;;;;;;;;;;;1.05;100.00;102524.38;5057960;28;19927;-74
2022/01/20 00:27:32;;;;;;;;;;;;;;;1.62;100.00;102529.53;5057380;28;20011;-75
2022/01/20 00:32:57;;;;;;;;;;;;;;;1.90;100.00;102529.50;5056968;28;19936;-75
2022/01/20 00:35:30;;;;;;;;;;;;;;;1.98;100.00;102526.88;5059451;28;20385;-75
2022/01/20 00:37:55;;;;;;;;;;;;;;;1.96;100.00;102528.41;5072450;28;20393;-74
2022/01/20 00:40:21;;;;;;;;;;;;;;;1.87;100.00;102532.63;5032089;28;20012;-74
2022/01/20 00:42:47;;;;;;;;;;;;;;;1.79;100.00;102528.53;5052104;28;20027;-75
2022/01/20 00:45:12;;;;;;;;;;;;;;;1.74;100.00;102528.09;5034251;28;19920;-75
2022/01/20 00:47:38;;;;;;;;;;;;;;;1.70;100.00;102531.16;5055309;28;20010;-75
2022/01/20 00:50:04;;;;;;;;;;;;;;;1.72;100.00;102526.19;5070625;28;19920;-74
2022/01/20 00:52:29;;;;;;;;;;;;;;;1.76;100.00;102528.25;5054435;28;20408;-74
2022/01/20 00:54:55;;;;;;;;;;;;;;;1.82;100.00;102538.94;5055652;28;19955;-75
2022/01/20 00:57:20;;;;;;;;;;;;;;;1.90;100.00;102534.56;5059962;28;19920;-74
2022/01/20 00:59:45;;;;;;;;;;;;;;;2.01;100.00;102546.56;5072741;28;19935;-75
2022/01/20 01:02:11;;;;;;;;;;;;;;;2.02;100.00;102541.63;5054068;28;20278;-74
2022/01/20 01:04:37;;;;;;;;;;;;;;;2.01;100.00;102538.97;5066564;28;19916;-74
2022/01/20 01:07:43;;;;;;;;;;;;;;;1.94;100.00;102534.97;5049486;28;19923;-75
2022/01/20 01:09:48;;;;;;;;;;;;;;;1.92;100.00;102540.66;5071763;28;19948;-75
2022/01/20 01:12:19;;;;;;;;;;;;;;;1.91;100.00;102549.91;5073151;28;19978;-75
2022/01/20 01:14:49;;;;;;;;;;;;;;;1.89;100.00;102561.59;5051732;28;19982;-75
2022/01/20 01:24:43;;;;;;;;;;;;;;;1.71;100.00;102553.22;5052227;28;19956;-74
2022/01/20 01:27:10;;;;;;;;;;;;;;;1.71;100.00;102552.31;5069635;28;20334;-74
2022/01/20 01:30:01;;;;;;;;;;;;;;;1.67;100.00;102556.22;5074201;28;20468;-74
2022/01/20 01:32:32;;;;;;;;;;;;;;;1.66;100.00;102551.91;5069940;28;19920;-74
2022/01/20 01:35:00;;;;;;;;;;;;;;;1.72;100.00;102551.56;5053748;28;19956;-74
2022/01/20 01:39:57;;;;;;;;;;;;;;;1.81;100.00;102545.66;5066287;28;19916;-74
2022/01/20 01:42:29;;;;;;;;;;;;;;;1.82;100.00;102544.00;5040335;28;19931;-75
2022/01/20 01:44:55;;;;;;;;;;;;;;;1.82;100.00;102544.00;5058991;28;19921;-74
2022/01/20 01:47:20;;;;;;;;;;;;;;;1.73;100.00;102543.19;5049598;28;19936;-74
2022/01/20 01:49:45;;;;;;;;;;;;;;;1.67;100.00;102547.72;5054786;28;19974;-74
2022/01/20 01:52:11;;;;;;;;;;;;;;;1.61;100.00;102548.94;5051616;28;19967;-74
2022/01/20 01:54:36;;;;;;;;;;;;;;;1.57;100.00;102541.78;5067075;28;20156;-74
2022/01/20 01:57:05;;;;;;;;;;;;;;;1.59;100.00;102552.09;5037590;28;19924;-74
2022/01/20 01:59:31;;;;;;;;;;;;;;;1.64;100.00;102552.50;5039046;28;20294;-75
2022/01/20 02:01:56;;;;;;;;;;;;;;;1.68;100.00;102550.38;5050911;28;19924;-74
2022/01/20 02:04:22;;;;;;;;;;;;;;;1.69;100.00;102548.72;5053886;28;19927;-75
2022/01/20 02:07:08;;;;;;;;;;;;;;;1.68;100.00;102544.41;5068508;28;19925;-74
2022/01/20 02:20:23;;;;;;;;;;;;;;;1.91;100.00;102560.06;5069647;28;19924;-75
2022/01/20 02:22:49;;;;;;;;;;;;;;;1.96;100.00;102563.91;5054725;28;19920;-74
2022/01/20 02:25:17;;;;;;;;;;;;;;;1.99;100.00;102560.75;5056289;28;20387;-74
2022/01/20 02:27:42;;;;;;;;;;;;;;;2.06;100.00;102561.44;5053351;28;19917;-74
2022/01/20 02:30:08;;;;;;;;;;;;;;;2.10;100.00;102555.88;5036833;28;19931;-74
2022/01/20 02:32:33;;;;;;;;;;;;;;;2.12;100.00;102559.47;5055973;28;19924;-75
2022/01/20 02:34:58;;;;;;;;;;;;;;;2.14;100.00;102563.00;5069643;28;20019;-74
2022/01/20 02:37:24;;;;;;;;;;;;;;;2.21;100.00;102550.88;5051248;28;20442;-74
2022/01/20 02:40:31;;;;;;;;;;;;;;;2.21;100.00;102550.88;5053356;28;19938;-74
2022/01/20 02:45:35;;;;;;;;;;;;;;;2.22;100.00;102534.88;5074636;28;19965;-74
2022/01/20 02:48:00;;;;;;;;;;;;;;;2.21;100.00;102548.34;5050739;28;20397;-74
2022/01/20 02:50:25;;;;;;;;;;;;;;;2.15;100.00;102551.22;5053076;28;19928;-74
2022/01/20 02:52:50;;;;;;;;;;;;;;;2.10;100.00;102544.84;5066524;28;19928;-74
2022/01/20 02:55:16;;;;;;;;;;;;;;;2.06;100.00;102548.75;5069359;28;19920;-74
2022/01/20 02:57:41;;;;;;;;;;;;;;;2.03;100.00;102543.41;5070479;28;19920;-74
2022/01/20 03:00:06;;;;;;;;;;;;;;;2.02;100.00;102543.28;5052786;28;19923;-74
2022/01/20 03:02:32;;;;;;;;;;;;;;;2.01;100.00;102536.44;5069394;28;19925;-74
2022/01/20 03:04:57;;;;;;;;;;;;;;;2.01;100.00;102532.25;5075034;28;20023;-74
2022/01/20 03:07:22;;;;;;;;;;;;;;;1.93;100.00;102540.78;5068727;28;19921;-74
2022/01/20 03:09:47;;;;;;;;;;;;;;;1.86;100.00;102528.31;5071788;28;20054;-74
2022/01/20 03:12:13;;;;;;;;;;;;;;;1.83;100.00;102535.66;5045445;28;19920;-74
2022/01/20 03:14:38;;;;;;;;;;;;;;;1.84;100.00;102537.44;5068716;28;19928;-74
2022/01/20 03:17:03;;;;;;;;;;;;;;;1.91;100.00;102528.75;5066681;28;20339;-74
2022/01/20 03:19:29;;;;;;;;;;;;;;;1.92;100.00;102518.72;5051587;28;19925;-74
2022/01/20 03:21:54;;;;;;;;;;;;;;;1.90;100.00;102516.81;5075178;28;19920;-74
2022/01/20 03:24:19;;;;;;;;;;;;;;;1.87;100.00;102512.34;5052726;28;19924;-74
2022/01/20 03:26:45;;;;;;;;;;;;;;;1.89;100.00;102515.94;5039101;28;19920;-74
2022/01/20 03:29:10;;;;;;;;;;;;;;;1.93;100.00;102520.50;5067546;28;19924;-75
2022/01/20 03:31:36;;;;;;;;;;;;;;;1.94;100.00;102522.28;5063668;28;19927;-74
2022/01/20 03:34:01;;;;;;;;;;;;;;;1.95;100.00;102519.00;5062754;28;20430;-74
2022/01/20 03:36:26;;;;;;;;;;;;;;;1.95;100.00;102515.59;5044761;28;20016;-74
2022/01/20 03:38:51;;;;;;;;;;;;;;;1.91;100.00;102513.53;5070638;28;20365;-74
2022/01/20 03:41:17;;;;;;;;;;;;;;;1.88;100.00;102525.19;5037077;28;20278;-74
2022/01/20 03:43:44;;;;;;;;;;;;;;;1.88;100.00;102516.66;5064779;28;19924;-74
2022/01/20 03:46:12;;;;;;;;;;;;;;;1.85;100.00;102519.81;5069115;28;20004;-74
2022/01/20 03:48:48;;;;;;;;;;;;;;;1.84;100.00;102528.19;5053332;28;19940;-74
2022/01/20 03:51:14;;;;;;;;;;;;;;;1.82;100.00;102533.88;5048880;28;19983;-74
2022/01/20 03:53:39;;;;;;;;;;;;;;;1.78;100.00;102531.81;5050260;28;20373;-74
2022/01/20 03:56:05;;;;;;;;;;;;;;;1.78;100.00;102529.28;5049047;28;19942;-74
2022/01/20 03:58:30;;;;;;;;;;;;;;;1.76;100.00;102523.16;5067180;28;19928;-74
2022/01/20 04:00:56;;;;;;;;;;;;;;;1.73;100.00;102530.50;5075670;28;19924;-74
2022/01/20 04:03:22;;;;;;;;;;;;;;;1.66;100.00;102526.53;5054334;28;19916;-74
2022/01/20 04:05:56;;;;;;;;;;;;;;;1.59;100.00;102529.28;5051429;28;19974;-74
2022/01/20 04:08:33;;;;;;;;;;;;;;;1.58;100.00;102535.09;5067951;28;19921;-74
2022/01/20 04:10:58;;;;;;;;;;;;;;;1.60;100.00;102542.09;5053448;28;19920;-73
2022/01/20 04:13:29;;;;;;;;;;;;;;;1.67;100.00;102548.59;5041272;28;20400;-74
2022/01/20 04:15:55;;;;;;;;;;;;;;;1.73;100.00;102543.19;5075684;28;19917;-74
2022/01/20 04:18:26;;;;;;;;;;;;;;;1.77;100.00;102550.34;5056319;28;19920;-74
2022/01/20 04:20:51;;;;;;;;;;;;;;;1.82;100.00;102552.53;5055717;28;20416;-74
2022/01/20 04:23:17;;;;;;;;;;;;;;;1.87;100.00;102558.88;5074441;28;19924;-75
2022/01/20 04:25:42;;;;;;;;;;;;;;;1.93;100.00;102558.53;5071207;28;20011;-76
2022/01/20 04:28:07;;;;;;;;;;;;;;;1.97;100.00;102558.06;5057269;28;19924;-74
2022/01/20 04:30:33;;;;;;;;;;;;;;;2.05;100.00;102566.38;5054127;28;19969;-75
2022/01/20 04:32:58;;;;;;;;;;;;;;;2.08;100.00;102571.72;5053796;28;20023;-75
2022/01/20 04:35:24;;;;;;;;;;;;;;;2.09;100.00;102570.97;5048802;28;19917;-74
2022/01/20 04:37:50;;;;;;;;;;;;;;;2.11;100.00;102575.41;5048240;28;20022;-75
2022/01/20 04:40:16;;;;;;;;;;;;;;;2.14;100.00;102564.66;5050003;28;19917;-74
2022/01/20 04:42:44;;;;;;;;;;;;;;;2.19;100.00;102567.63;5050195;28;19935;-75
2022/01/20 04:45:13;;;;;;;;;;;;;;;2.22;100.00;102572.94;5033814;28;19963;-74
2022/01/20 04:48:15;;;;;;;;;;;;;;;2.20;100.00;102572.81;5055806;28;19923;-75
2022/01/20 04:58:36;;;;;;;;;;;;;;;2.21;100.00;102587.28;5045384;28;19928;-75
2022/01/20 05:01:03;;;;;;;;;;;;;;;2.22;100.00;102586.53;5048684;28;19925;-75
2022/01/20 05:03:28;;;;;;;;;;;;;;;2.24;100.00;102599.34;5052624;28;19939;-75
2022/01/20 05:05:54;;;;;;;;;;;;;;;2.27;100.00;102604.72;5034742;28;19920;-75
2022/01/20 05:08:23;;;;;;;;;;;;;;;2.30;100.00;102597.34;5052661;28;19951;-74
2022/01/20 05:10:48;;;;;;;;;;;;;;;2.33;100.00;102607.78;5049187;28;20014;-75
2022/01/20 05:13:32;;;;;;;;;;;;;;;2.35;100.00;102602.09;5049205;28;19991;-76
2022/01/20 05:15:58;;;;;;;;;;;;;;;2.37;100.00;102599.72;5049764;28;19924;-75
2022/01/20 05:18:23;;;;;;;;;;;;;;;2.40;100.00;102616.09;5048871;28;20400;-75
2022/01/20 05:20:48;;;;;;;;;;;;;;;2.41;100.00;102616.97;5045760;28;20004;-74
2022/01/20 05:23:13;;;;;;;;;;;;;;;2.42;100.00;102619.63;5047371;28;20352;-74
2022/01/20 05:25:39;;;;;;;;;;;;;;;2.47;100.00;102636.94;5050122;28;19970;-75
2022/01/20 05:28:04;;;;;;;;;;;;;;;2.49;100.00;102631.25;5049979;28;19927;-75
2022/01/20 05:30:29;;;;;;;;;;;;;;;2.51;100.00;102639.91;5065970;28;19920;-75
2022/01/20 05:32:55;;;;;;;;;;;;;;;2.53;100.00;102627.31;5035860;28;19921;-75
2022/01/20 05:35:20;;;;;;;;;;;;;;;2.62;100.00;102630.69;5069002;28;19920;-75
2022/01/20 05:37:45;;;;;;;;;;;;;;;2.68;100.00;102649.91;5054993;28;19929;-75
2022/01/20 05:40:11;;;;;;;;;;;;;;;2.63;100.00;102648.59;5052108;28;20042;-74
2022/01/20 05:42:36;;;;;;;;;;;;;;;2.63;100.00;102655.31;5068247;28;19939;-74
2022/01/20 05:45:05;;;;;;;;;;;;;;;2.61;100.00;102655.19;5053068;28;19920;-74
2022/01/20 05:47:32;;;;;;;;;;;;;;;2.61;100.00;102672.09;5050385;28;19928;-75
2022/01/20 05:49:57;;;;;;;;;;;;;;;2.63;100.00;102681.63;5056037;28;19920;-74
2022/01/20 05:52:23;;;;;;;;;;;;;;;2.63;100.00;102680.72;5067934;28;20011;-75
2022/01/20 05:54:48;;;;;;;;;;;;;;;2.66;100.00;102679.31;5055120;28;19947;-74
2022/01/20 05:57:14;;;;;;;;;;;;;;;2.61;100.00;102672.97;5053928;28;19920;-74
2022/01/20 05:59:39;;;;;;;;;;;;;;;2.59;100.00;102679.53;5051380;28;19928;-75
2022/01/20 06:02:13;;;;;;;;;;;;;;;2.56;100.00;102675.88;5056014;28;20015;-74
2022/01/20 06:04:38;;;;;;;;;;;;;;;2.54;100.00;102685.84;5067185;28;19928;-75
2022/01/20 06:07:03;;;;;;;;;;;;;;;2.53;100.00;102678.13;5070980;28;19916;-75
2022/01/20 06:09:29;;;;;;;;;;;;;;;2.55;100.00;102674.97;5066847;28;20011;-74
2022/01/20 06:11:54;;;;;;;;;;;;;;;2.59;100.00;102678.66;5050362;28;19938;-74
2022/01/20 06:14:19;;;;;;;;;;;;;;;2.55;100.00;102682.59;5054554;28;19920;-73
2022/01/20 06:16:45;;;;;;;;;;;;;;;2.53;100.00;102689.16;5078862;28;19925;-73
2022/01/20 06:19:10;;;;;;;;;;;;;;;2.53;100.00;102694.25;5033310;28;19959;-74
2022/01/20 06:21:37;;;;;;;;;;;;;;;2.57;100.00;102693.78;5056575;28;19966;-74
2022/01/20 06:24:03;;;;;;;;;;;;;;;2.57;100.00;102713.19;5055903;28;20128;-74
2022/01/20 06:26:28;;;;;;;;;;;;;;;2.55;100.00;102712.16;5065597;28;20377;-73
2022/01/20 06:28:53;;;;;;;;;;;;;;;2.52;100.00;102711.88;5051967;28;19947;-74
2022/01/20 06:31:18;;;;;;;;;;;;;;;2.51;100.00;102710.09;5056417;28;19924;-74
2022/01/20 06:33:44;;;;;;;;;;;;;;;2.52;100.00;102714.44;5070214;28;19924;-74
2022/01/20 06:36:09;;;;;;;;;;;;;;;2.49;100.00;102722.69;5057939;28;19920;-74
2022/01/20 06:38:34;;;;;;;;;;;;;;;2.50;100.00;102718.50;5034592;28;19920;-73
2022/01/20 06:41:00;;;;;;;;;;;;;;;2.49;100.00;102735.38;5069782;28;20309;-73
2022/01/20 06:43:26;;;;;;;;;;;;;;;2.49;100.00;102725.22;5053732;28;19916;-73
2022/01/20 06:45:52;;;;;;;;;;;;;;;2.47;100.00;102731.78;5052322;28;19982;-73
2022/01/20 06:48:17;;;;;;;;;;;;;;;2.46;100.00;102726.56;5070541;28;19981;-73
2022/01/20 06:50:42;;;;;;;;;;;;;;;2.44;100.00;102739.13;5053356;28;19932;-73
2022/01/20 06:53:08;;;;;;;;;;;;;;;2.41;100.00;102742.28;5054222;28;19940;-74
2022/01/20 06:55:34;;;;;;;;;;;;;;;2.41;100.00;102746.47;5048282;28;19929;-74
2022/01/20 06:58:00;;;;;;;;;;;;;;;2.40;100.00;102750.66;5050149;28;19924;-74
2022/01/20 07:00:25;;;;;;;;;;;;;;;2.37;100.00;102767.25;5055359;28;19916;-74
2022/01/20 07:02:51;;;;;;;;;;;;;;;2.38;100.00;102764.84;5034684;28;19928;-74
2022/01/20 07:05:18;;;;;;;;;;;;;;;2.41;100.00;102764.22;5054172;28;19920;-73
2022/01/20 07:07:43;;;;;;;;;;;;;;;2.43;100.00;102767.81;5064784;28;19916;-73
2022/01/20 07:10:10;;;;;;;;;;;;;;;2.42;100.00;102766.00;5050351;28;19935;-73
2022/01/20 07:12:35;;;;;;;;;;;;;;;2.36;100.00;102768.00;5050491;28;19923;-73
2022/01/20 07:15:01;;;;;;;;;;;;;;;2.37;98.29;102775.78;5070725;28;19924;-73
2022/01/20 07:17:27;;;;;;;;;;;;;;;2.35;100.00;102764.56;5073440;28;19924;-74
2022/01/20 07:19:52;;;;;;;;;;;;;;;2.34;100.00;102784.75;5070632;28;20412;-74
2022/01/20 07:22:17;;;;;;;;;;;;;;;2.32;100.00;102789.69;5056814;28;19985;-74
2022/01/20 07:24:42;;;;;;;;;;;;;;;2.27;98.27;102784.94;5073375;28;20006;-74
2022/01/20 07:27:08;;;;;;;;;;;;;;;2.32;97.30;102788.78;5047115;28;19921;-74
2022/01/20 07:29:34;;;;;;;;;;;;;;;2.30;100.00;102795.34;5052884;28;19979;-74
2022/01/20 07:32:01;;;;;;;;;;;;;;;2.30;100.00;102795.34;5054846;28;19977;-75
2022/01/20 07:34:27;;;;;;;;;;;;;;;2.25;100.00;102806.75;5043082;28;19938;-74
2022/01/20 07:36:52;;;;;;;;;;;;;;;2.22;100.00;102809.00;5060678;28;19957;-73
2022/01/20 07:39:17;;;;;;;;;;;;;;;2.22;100.00;102811.53;5055763;28;20445;-73
2022/01/20 07:41:43;;;;;;;;;;;;;;;2.22;100.00;102812.44;5072439;28;19920;-74
2022/01/20 07:44:09;;;;;;;;;;;;;;;2.26;100.00;102808.53;5081366;28;20045;-74
2022/01/20 07:46:34;;;;;;;;;;;;;;;2.26;96.92;102811.97;5072598;28;19968;-74
2022/01/20 07:48:59;;;;;;;;;;;;;;;2.27;96.43;102808.66;5059442;28;19920;-73
2022/01/20 07:51:25;;;;;;;;;;;;;;;2.33;95.83;102813.41;5075333;28;19920;-73
2022/01/20 07:53:50;;;;;;;;;;;;;;;2.33;96.16;102808.34;5056338;28;20013;-74
2022/01/20 07:56:15;;;;;;;;;;;;;;;2.34;97.02;102817.75;5052600;28;20401;-74
2022/01/20 07:58:41;;;;;;;;;;;;;;;2.35;97.97;102827.13;5060874;28;19921;-73
2022/01/20 08:01:06;;;;;;;;;;;;;;;2.35;97.62;102822.06;5060602;28;19925;-75
2022/01/20 08:03:32;;;;;;;;;;;;;;;2.35;96.39;102827.13;5075574;28;19928;-75
2022/01/20 08:06:00;;;;;;;;;;;;;;;2.36;97.64;102829.81;5056498;28;19917;-74
2022/01/20 08:08:25;;;;;;;;;;;;;;;2.37;96.31;102831.63;5052100;28;19920;-73
2022/01/20 08:10:51;;;;;;;;;;;;;;;2.40;97.94;102848.78;5068474;28;20284;-74
2022/01/20 08:13:16;;;;;;;;;;;;;;;2.41;97.61;102845.47;5055424;28;19931;-74
2022/01/20 08:15:42;;;;;;;;;;;;;;;2.41;99.24;102843.81;5075997;28;19969;-75
2022/01/20 08:18:07;;;;;;;;;;;;;;;2.42;97.46;102849.81;5054069;28;20547;-76
2022/01/20 08:20:33;;;;;;;;;;;;;;;2.44;96.19;102857.59;5035853;28;19932;-74
2022/01/20 08:22:59;;;;;;;;;;;;;;;2.46;94.88;102862.03;5071109;28;19973;-74
2022/01/20 08:25:24;;;;;;;;;;;;;;;2.49;96.92;102861.41;5047345;28;19920;-74
2022/01/20 08:27:50;;;;;;;;;;;;;;;2.50;96.72;102860.69;5043285;28;20019;-74
2022/01/20 08:30:16;;;;;;;;;;;;;;;2.52;97.33;102867.69;5056110;28;20019;-73
2022/01/20 08:32:42;;;;;;;;;;;;;;;2.58;96.76;102874.97;5069762;28;20370;-74
2022/01/20 08:35:09;;;;;;;;;;;;;;;2.58;98.15;102880.94;5073654;28;20434;-74
2022/01/20 08:37:40;;;;;;;;;;;;;;;2.61;97.56;102880.34;5071496;28;20494;-74
2022/01/20 08:40:09;;;;;;;;;;;;;;;2.62;98.82;102874.50;5075165;28;19916;-74
2022/01/20 08:42:34;;;;;;;;;;;;;;;2.65;98.34;102882.41;5041847;28;19928;-74
2022/01/20 08:45:00;;;;;;;;;;;;;;;2.67;98.10;102886.88;5052910;28;19917;-73
2022/01/20 08:47:26;;;;;;;;;;;;;;;2.71;96.28;102889.69;5072302;28;20335;-73
2022/01/20 08:49:51;;;;;;;;;;;;;;;2.77;97.10;102892.78;5057436;28;19931;-74
2022/01/20 08:52:17;;;;;;;;;;;;;;;2.85;97.80;102902.94;5069876;28;19925;-72
2022/01/20 08:54:45;;;;;;;;;;;;;;;2.90;97.85;102903.31;5071773;28;19924;-75
2022/01/20 08:57:11;;;;;;;;;;;;;;;2.94;96.94;102907.94;5074113;28;19943;-74
2022/01/20 08:59:40;;;;;;;;;;;;;;;2.94;98.53;102905.41;5076722;28;20378;-75
2022/01/20 09:02:06;;;;;;;;;;;;;;;2.94;97.63;102913.03;5072148;28;19924;-74
2022/01/20 09:04:32;;;;;;;;;;;;;;;2.99;98.28;102909.25;5072639;28;19927;-75
2022/01/20 09:06:57;;;;;;;;;;;;;;;3.03;97.48;102916.38;5060138;28;20284;-76
2022/01/20 09:09:22;;;;;;;;;;;;;;;3.09;98.90;102916.03;5054622;28;19935;-75
2022/01/20 09:12:04;;;;;;;;;;;;;;;3.11;97.46;102912.03;5070124;28;19920;-75
2022/01/20 09:17:13;;;;;;;;;;;;;;;3.26;96.99;102920.13;5056052;28;20566;-75
2022/01/20 09:19:38;;;;;;;;;;;;;;;3.34;97.23;102926.81;5056621;28;20136;-75
2022/01/20 09:22:05;;;;;;;;;;;;;;;3.40;95.44;102922.28;5054778;28;20376;-75
2022/01/20 09:24:30;;;;;;;;;;;;;;;3.46;95.86;102930.47;5076086;28;20019;-77
2022/01/20 09:26:56;;;;;;;;;;;;;;;3.50;96.27;102920.66;5074043;28;20019;-76
2022/01/20 09:29:21;;;;;;;;;;;;;;;3.51;95.19;102916.47;5072237;28;20062;-76
2022/01/20 09:31:49;;;;;;;;;;;;;;;3.64;97.55;102918.47;5049038;28;20445;-77
2022/01/20 09:34:15;;;;;;;;;;;;;;;5.13;98.40;102915.16;5068664;28;20021;-75
2022/01/20 09:36:41;;;;;;;;;;;;;;;6.77;97.96;102906.09;5072040;28;19967;-76
2022/01/20 09:39:06;;;;;;;;;;;;;;;8.77;93.29;102912.00;5056493;28;20363;-76
2022/01/20 09:41:31;;;;;;;;;;;;;;;10.59;87.79;102890.31;5054538;28;19939;-78
2022/01/20 09:43:57;;;;;;;;;;;;;;;12.31;84.13;102887.25;5066508;28;19924;-78
2022/01/20 09:46:22;;;;;;;;;;;;;;;13.67;74.79;102888.13;5069888;28;19924;-80
2022/01/20 09:48:48;;;;;;;;;;;;;;;13.32;70.94;102907.97;5056561;28;19974;-79
2022/01/20 09:51:13;;;;;;;;;;;;;;;13.21;72.32;102921.16;5052382;28;19924;-76
2022/01/20 09:53:39;;;;;;;;;;;;;;;12.70;67.66;102917.69;5053515;28;19928;-76
2022/01/20 09:56:04;;;;;;;;;;;;;;;11.76;63.79;102914.28;5052561;28;20428;-78
2022/01/20 09:58:30;;;;;;;;;;;;;;;10.92;71.43;102936.09;5052995;28;19956;-77
2022/01/20 10:00:58;;;;;;;;;;;;;;;11.04;75.51;102943.63;5083903;28;20328;-77
2022/01/20 10:03:24;;;;;;;;;;;;;;;12.35;73.37;102951.13;5075114;28;19916;-77
2022/01/20 10:05:50;;;;;;;;;;;;;;;13.59;70.73;102949.81;5073290;28;20438;-77
2022/01/20 10:08:16;;;;;;;;;;;;;;;14.61;56.24;102945.09;5075195;28;19920;-78
2022/01/20 10:10:47;;;;;;;;;;;;;;;15.06;58.62;102947.94;5072309;28;19923;-77
2022/01/20 10:13:13;;;;;;;;;;;;;;;15.53;48.45;102949.91;5054881;28;19928;-78
2022/01/20 10:15:39;;;;;;;;;;;;;;;15.94;59.23;102943.81;5072230;28;19924;-78
2022/01/20 10:18:09;;;;;;;;;;;;;;;15.90;56.04;102946.25;5079445;28;19973;-78
2022/01/20 10:20:35;;;;;;;;;;;;;;;15.86;51.13;102955.59;5071083;28;19915;-77
2022/01/20 10:23:01;;;;;;;;;;;;;;;16.34;62.19;102955.72;5060284;28;19970;-78
2022/01/20 10:25:26;;;;;;;;;;;;;;;16.97;56.26;102963.22;5068736;28;20434;-77
2022/01/20 10:27:53;;;;;;;;;;;;;;;17.18;53.97;102971.78;5072469;28;20007;-77
2022/01/20 10:30:20;;;;;;;;;;;;;;;17.27;50.72;102971.19;5055051;28;20411;-77
2022/01/20 10:32:50;;;;;;;;;;;;;;;17.07;50.36;102967.94;5049873;28;20059;-77
2022/01/20 10:35:17;;;;;;;;;;;;;;;17.39;45.90;102976.81;5069412;28;19960;-78
2022/01/20 10:37:59;;;;;;;;;;;;;;;17.77;45.77;102959.88;5066491;28;19923;-77
2022/01/20 10:40:24;;;;;;;;;;;;;;;17.05;53.85;102967.88;5055583;28;19924;-77
2022/01/20 10:42:49;;;;;;;;;;;;;;;15.09;42.56;102969.66;5072293;28;19939;-77
2022/01/20 10:45:28;;;;;;;;;;;;;;;13.30;54.18;102981.94;5041754;28;19924;-77
2022/01/20 10:48:02;;;;;;;;;;;;;;;11.86;58.78;102977.59;5055718;28;20401;-77
2022/01/20 10:50:29;;;;;;;;;;;;;;;10.48;63.07;102980.56;5069321;28;19986;-77
2022/01/20 10:52:55;;;;;;;;;;;;;;;9.43;59.05;102996.88;5065835;28;20444;-77
2022/01/20 10:55:22;;;;;;;;;;;;;;;8.83;65.23;102989.38;5071704;28;20004;-77
2022/01/20 10:57:48;;;;;;;;;;;;;;;8.31;64.00;102981.47;5071320;28;19920;-77
2022/01/20 11:00:17;;;;;;;;;;;;;;;8.22;60.74;102985.94;5050680;28;19916;-77
2022/01/20 11:02:42;;;;;;;;;;;;;;;7.96;62.35;102980.63;5071913;28;19916;-76
2022/01/20 11:05:10;;;;;;;;;;;;;;;7.75;64.06;102993.63;5073156;28;19916;-76
2022/01/20 11:07:37;;;;;;;;;;;;;;;7.51;61.64;103000.38;5076480;28;20277;-76
2022/01/20 11:10:05;;;;;;;;;;;;;;;7.23;65.29;102999.13;5062222;28;19917;-77
2022/01/20 11:12:31;;;;;;;;;;;;;;;6.93;68.04;103005.34;5047398;28;19924;-76
2022/01/20 11:14:57;;;;;;;;;;;;;;;6.66;68.47;102999.84;5062739;28;19924;-76
2022/01/20 11:17:25;;;;;;;;;;;;;;;6.44;65.71;102997.31;5070697;28;19920;-75
2022/01/20 11:19:51;;;;;;;;;;;;;;;6.55;69.56;102997.22;5073905;28;19923;-74
2022/01/20 11:22:17;;;;;;;;;;;;;;;7.77;67.25;102986.97;5079854;28;19920;-76
2022/01/20 11:24:43;;;;;;;;;;;;;;;9.99;65.42;102994.56;5074829;28;19975;-74
2022/01/20 11:27:12;;;;;;;;;;;;;;;11.66;59.94;102981.59;5080210;28;19931;-75
2022/01/20 11:29:48;;;;;;;;;;;;;;;11.33;57.51;102983.09;5076300;28;19919;-76
2022/01/20 11:32:24;;;;;;;;;;;;;;;10.51;58.39;102972.19;5056902;28;19917;-75
2022/01/20 11:34:53;;;;;;;;;;;;;;;9.93;57.17;102976.16;5076655;28;19927;-75
2022/01/20 11:37:23;;;;;;;;;;;;;;;9.27;62.14;102976.97;5056158;28;20373;-74
2022/01/20 11:39:48;;;;;;;;;;;;;;;8.86;62.59;102976.78;5058830;28;20397;-75
2022/01/20 11:42:24;;;;;;;;;;;;;;;8.46;61.32;102980.78;5054790;28;19971;-73
2022/01/20 11:44:50;;;;;;;;;;;;;;;8.17;64.65;102973.56;5061126;28;20399;-74
2022/01/20 11:47:15;;;;;;;;;;;;;;;7.84;61.89;102978.06;5053248;28;19917;-77
2022/01/20 11:49:43;;;;;;;;;;;;;;;7.72;65.26;102970.38;5065432;28;19927;-75
2022/01/20 11:52:21;;;;;;;;;;;;;;;7.41;68.06;102974.00;5072883;28;20393;-74
2022/01/20 11:54:46;;;;;;;;;;;;;;;7.17;67.36;102976.50;5072291;28;19927;-74
2022/01/20 11:57:11;;;;;;;;;;;;;;;7.14;65.30;102976.25;5060098;28;20351;-76
2022/01/20 11:59:38;;;;;;;;;;;;;;;7.03;64.95;102974.56;5059372;28;19922;-76
2022/01/20 12:02:03;;;;;;;;;;;;;;;7.07;65.37;102979.13;5050184;28;19964;-75
2022/01/20 12:04:33;;;;;;;;;;;;;;;7.04;65.87;102972.88;5051596;28;19962;-74
2022/01/20 12:06:58;;;;;;;;;;;;;;;6.79;65.83;102976.13;5051078;28;20384;-77
2022/01/20 12:09:41;;;;;;;;;;;;;;;6.83;66.32;102972.16;5076196;28;19920;-75
2022/01/20 12:12:18;;;;;;;;;;;;;;;7.08;67.83;102968.13;5069065;28;20270;-76
2022/01/20 12:14:45;;;;;;;;;;;;;;;7.35;68.82;102955.63;5071263;28;19943;-76
2022/01/20 12:17:15;;;;;;;;;;;;;;;7.43;64.90;102955.41;5055340;28;19920;-75
2022/01/20 12:20:00;;;;;;;;;;;;;;;7.43;66.52;102947.72;5069076;28;19916;-76
2022/01/20 12:22:25;;;;;;;;;;;;;;;7.37;62.11;102937.03;5054486;28;19966;-76
2022/01/20 12:24:52;;;;;;;;;;;;;;;7.13;60.10;102943.78;5072981;28;19917;-76
2022/01/20 12:27:18;;;;;;;;;;;;;;;6.99;62.53;102949.53;5081720;28;19966;-76
2022/01/20 12:29:43;;;;;;;;;;;;;;;6.89;62.34;102947.06;5072091;28;20038;-78
2022/01/20 12:32:13;;;;;;;;;;;;;;;6.77;65.72;102952.13;5033794;28;19979;-76
2022/01/20 12:34:39;;;;;;;;;;;;;;;6.65;66.08;102958.84;5053336;28;19952;-77
2022/01/20 12:37:04;;;;;;;;;;;;;;;6.64;65.69;102967.28;5057527;28;20569;-77
2022/01/20 12:39:34;;;;;;;;;;;;;;;6.59;65.18;102960.94;5072520;28;20535;-77
2022/01/20 12:42:00;;;;;;;;;;;;;;;6.51;68.21;102957.78;5074483;28;20003;-76
2022/01/20 12:44:36;;;;;;;;;;;;;;;6.53;66.15;102952.78;5071425;28;19920;-74
2022/01/20 12:47:02;;;;;;;;;;;;;;;6.61;66.32;102967.97;5068389;28;19927;-75
2022/01/20 12:49:27;;;;;;;;;;;;;;;6.91;67.59;102954.06;5050233;28;19981;-75
2022/01/20 12:51:54;;;;;;;;;;;;;;;7.07;65.47;102957.78;5042866;28;19928;-75
2022/01/20 12:54:27;;;;;;;;;;;;;;;7.12;67.28;102948.78;5068725;28;19936;-77
2022/01/20 12:56:53;;;;;;;;;;;;;;;7.17;65.56;102934.69;5054557;28;19959;-76
2022/01/20 12:59:26;;;;;;;;;;;;;;;7.33;66.80;102924.78;5072954;28;19916;-76
2022/01/20 13:01:53;;;;;;;;;;;;;;;7.43;66.59;102934.06;5052194;28;19967;-76
2022/01/20 13:04:21;;;;;;;;;;;;;;;7.38;68.10;102935.38;5050661;28;19967;-75
2022/01/20 13:06:53;;;;;;;;;;;;;;;7.31;68.33;102938.25;5077105;28;21135;-75
2022/01/20 13:09:20;;;;;;;;;;;;;;;7.22;69.47;102934.25;5076397;28;20393;-75
2022/01/20 13:11:57;;;;;;;;;;;;;;;7.00;68.39;102946.19;5040675;28;19926;-74
2022/01/20 13:14:51;;;;;;;;;;;;;;;6.78;67.02;102953.91;5053783;28;19920;-76
2022/01/20 13:17:22;;;;;;;;;;;;;;;6.59;69.75;102960.94;5035954;28;20007;-75
2022/01/20 13:19:48;;;;;;;;;;;;;;;6.44;69.68;102964.09;5075669;28;19925;-73
2022/01/20 13:22:40;;;;;;;;;;;;;;;6.30;70.41;102959.53;5044492;28;20381;-74
2022/01/20 13:25:11;;;;;;;;;;;;;;;6.08;71.57;102964.63;5048947;28;19962;-76
2022/01/20 13:27:37;;;;;;;;;;;;;;;5.99;70.81;102957.88;5074058;28;20380;-72
2022/01/20 13:30:03;;;;;;;;;;;;;;;5.94;73.19;102964.28;5047583;28;20397;-74
2022/01/20 13:32:28;;;;;;;;;;;;;;;5.91;73.13;102970.03;5070862;28;19970;-75
2022/01/20 13:34:55;;;;;;;;;;;;;;;5.79;74.76;102985.22;5030584;28;20015;-74
2022/01/20 13:37:20;;;;;;;;;;;;;;;5.56;76.08;102983.34;5067965;28;20668;-73
2022/01/20 13:39:49;;;;;;;;;;;;;;;5.18;78.16;102986.94;5040935;28;20206;-73
2022/01/20 13:42:30;;;;;;;;;;;;;;;5.03;78.83;102978.88;5073235;28;19924;-73